createdAt,value
2018-02-24T00:00:26.990Z,0.00
2018-02-24T00:01:26.937Z,0.00
2018-02-24T00:02:27.193Z,0.00
2018-02-24T00:03:26.838Z,0.00
2018-02-24T00:04:26.792Z,0.00
2018-02-24T00:05:26.739Z,0.00
2018-02-24T00:06:26.688Z,0.00
2018-02-24T00:07:26.638Z,0.00
2018-02-24T00:08:26.891Z,0.00
2018-02-24T00:09:26.538Z,0.00
2018-02-24T00:10:26.488Z,0.00
2018-02-24T00:11:26.436Z,0.00
2018-02-24T00:12:26.389Z,0.00
2018-02-24T00:13:26.389Z,0.00
2018-02-24T00:14:26.588Z,0.00
2018-02-24T00:15:26.240Z,0.00
2018-02-24T00:16:26.192Z,0.00
2018-02-24T00:17:26.137Z,0.00
2018-02-24T00:18:26.090Z,0.00
2018-02-24T00:19:26.039Z,0.00
2018-02-24T00:20:26.288Z,0.00
2018-02-24T00:21:25.943Z,0.00
2018-02-24T00:22:25.887Z,0.00
2018-02-24T00:23:25.838Z,0.00
2018-02-24T00:24:25.789Z,0.00
2018-02-24T00:25:25.739Z,0.00
2018-02-24T00:26:25.994Z,0.00
2018-02-24T00:27:25.642Z,0.00
2018-02-24T00:28:25.600Z,0.00
2018-02-24T00:29:25.641Z,0.00
2018-02-24T00:30:25.492Z,0.00
2018-02-24T00:31:25.441Z,0.00
2018-02-24T00:32:25.687Z,0.00
2018-02-24T00:33:25.337Z,0.00
2018-02-24T00:34:25.294Z,0.00
2018-02-24T00:35:25.288Z,0.00
2018-02-24T00:36:25.187Z,0.00
2018-02-24T00:37:25.136Z,0.00
2018-02-24T00:38:25.086Z,0.00
2018-02-24T00:39:25.340Z,0.00
2018-02-24T00:40:24.985Z,0.00
2018-02-24T00:41:24.990Z,0.00
2018-02-24T00:42:24.884Z,0.00
2018-02-24T00:43:24.838Z,0.00
2018-02-24T00:44:24.785Z,0.00
2018-02-24T00:45:24.736Z,0.00
2018-02-24T00:46:24.984Z,0.00
2018-02-24T00:47:24.634Z,0.00
2018-02-24T00:48:24.586Z,0.00
2018-02-24T00:49:24.535Z,0.00
2018-02-24T00:50:24.486Z,0.00
2018-02-24T00:51:24.434Z,0.00
2018-02-24T00:52:24.432Z,0.00
2018-02-24T00:53:24.634Z,0.00
2018-02-24T00:54:24.282Z,0.00
2018-02-24T00:55:24.231Z,0.00
2018-02-24T00:56:24.181Z,0.00
2018-02-24T00:57:24.134Z,0.00
2018-02-24T00:58:24.134Z,0.00
2018-02-24T00:59:24.036Z,0.00
2018-02-24T01:00:24.284Z,0.00
2018-02-24T01:01:23.933Z,0.00
2018-02-24T01:02:23.880Z,0.00
2018-02-24T01:03:23.836Z,0.00
2018-02-24T01:04:23.787Z,0.00
2018-02-24T01:05:23.734Z,0.00
2018-02-24T01:06:23.680Z,0.00
2018-02-24T01:07:23.931Z,0.00
2018-02-24T01:08:23.584Z,0.00
2018-02-24T01:09:23.529Z,0.00
2018-02-24T01:10:23.483Z,0.00
2018-02-24T01:11:23.428Z,0.00
2018-02-24T01:12:23.378Z,0.00
2018-02-24T01:13:23.331Z,0.00
2018-02-24T01:14:23.636Z,0.00
2018-02-24T01:15:23.228Z,0.00
2018-02-24T01:16:23.177Z,0.00
2018-02-24T01:17:23.133Z,0.00
2018-02-24T01:18:23.078Z,0.00
2018-02-24T01:19:23.027Z,0.00
2018-02-24T01:20:23.428Z,0.00
2018-02-24T01:21:22.927Z,0.00
2018-02-24T01:22:22.881Z,0.00
2018-02-24T01:23:22.826Z,0.00
2018-02-24T01:24:22.776Z,0.00
2018-02-24T01:25:22.726Z,0.00
2018-02-24T01:26:23.077Z,0.00
2018-02-24T01:27:22.625Z,0.00
2018-02-24T01:28:22.574Z,0.00
2018-02-24T01:29:22.527Z,0.00
2018-02-24T01:30:22.475Z,0.00
2018-02-24T01:31:22.424Z,0.00
2018-02-24T01:32:22.675Z,0.00
2018-02-24T01:33:22.331Z,0.00
2018-02-24T01:34:22.273Z,0.00
2018-02-24T01:35:22.223Z,0.00
2018-02-24T01:36:22.173Z,0.00
2018-02-24T01:37:22.173Z,0.00
2018-02-24T01:38:22.371Z,0.00
2018-02-24T01:39:22.022Z,0.00
2018-02-24T01:40:21.972Z,0.00
2018-02-24T01:41:21.921Z,0.00
2018-02-24T01:42:21.872Z,0.00
2018-02-24T01:43:21.873Z,0.00
2018-02-24T01:44:22.074Z,0.00
2018-02-24T01:45:21.719Z,0.00
2018-02-24T01:46:21.670Z,0.00
2018-02-24T01:47:21.619Z,0.00
2018-02-24T01:48:21.568Z,0.00
2018-02-24T01:49:21.518Z,0.00
2018-02-24T01:50:21.467Z,0.00
2018-02-24T01:51:21.717Z,0.00
2018-02-24T01:52:21.367Z,0.00
2018-02-24T01:53:21.317Z,0.00
2018-02-24T01:54:21.267Z,0.00
2018-02-24T01:55:21.220Z,0.00
2018-02-24T01:56:21.166Z,0.00
2018-02-24T01:57:21.116Z,0.00
2018-02-24T01:58:21.366Z,0.00
2018-02-24T01:59:21.015Z,0.00
2018-02-24T02:00:20.966Z,0.00
2018-02-24T02:01:20.915Z,0.00
2018-02-24T02:02:20.863Z,0.00
2018-02-24T02:03:20.814Z,0.00
2018-02-24T02:04:20.763Z,0.00
2018-02-24T02:05:21.114Z,0.00
2018-02-24T02:06:20.663Z,0.00
2018-02-24T02:07:20.613Z,0.00
2018-02-24T02:08:20.563Z,0.00
2018-02-24T02:09:20.522Z,0.00
2018-02-24T02:10:20.464Z,0.00
2018-02-24T02:11:20.562Z,0.00
2018-02-24T02:12:20.660Z,0.00
2018-02-24T02:13:20.489Z,0.00
2018-02-24T02:14:20.259Z,0.00
2018-02-24T02:15:20.209Z,0.00
2018-02-24T02:16:20.159Z,0.00
2018-02-24T02:17:20.119Z,0.00
2018-02-24T02:18:20.058Z,0.00
2018-02-24T02:19:20.307Z,0.00
2018-02-24T02:20:19.961Z,0.00
2018-02-24T02:21:19.908Z,0.00
2018-02-24T02:22:19.905Z,0.00
2018-02-24T02:23:19.809Z,0.00
2018-02-24T02:24:19.754Z,0.00
2018-02-24T02:25:20.005Z,0.00
2018-02-24T02:26:19.654Z,0.00
2018-02-24T02:27:19.602Z,0.00
2018-02-24T02:28:19.601Z,0.00
2018-02-24T02:29:19.504Z,0.00
2018-02-24T02:30:19.453Z,0.00
2018-02-24T02:31:19.703Z,0.00
2018-02-24T02:32:19.352Z,0.00
2018-02-24T02:33:19.303Z,0.00
2018-02-24T02:34:19.301Z,0.00
2018-02-24T02:35:19.202Z,0.00
2018-02-24T02:36:19.150Z,0.00
2018-02-24T02:37:19.400Z,0.00
2018-02-24T02:38:19.049Z,0.00
2018-02-24T02:39:18.999Z,0.00
2018-02-24T02:40:18.947Z,0.00
2018-02-24T02:41:18.899Z,0.00
2018-02-24T02:42:18.846Z,0.00
2018-02-24T02:43:19.100Z,0.00
2018-02-24T02:44:18.747Z,0.00
2018-02-24T02:45:18.697Z,0.00
2018-02-24T02:46:18.647Z,0.00
2018-02-24T02:47:18.595Z,0.00
2018-02-24T02:48:18.545Z,0.00
2018-02-24T02:49:18.794Z,0.00
2018-02-24T02:50:18.444Z,0.00
2018-02-24T02:51:18.392Z,0.00
2018-02-24T02:52:18.342Z,0.00
2018-02-24T02:53:18.296Z,0.00
2018-02-24T02:54:18.248Z,0.00
2018-02-24T02:55:18.298Z,0.00
2018-02-24T02:56:18.440Z,0.00
2018-02-24T02:57:18.091Z,0.00
2018-02-24T02:58:18.040Z,0.00
2018-02-24T02:59:17.987Z,0.00
2018-02-24T03:00:17.939Z,0.00
2018-02-24T03:01:17.939Z,0.00
2018-02-24T03:02:17.842Z,0.00
2018-02-24T03:03:18.087Z,0.00
2018-02-24T03:04:17.740Z,0.00
2018-02-24T03:05:17.686Z,0.00
2018-02-24T03:06:17.633Z,0.00
2018-02-24T03:07:17.582Z,0.00
2018-02-24T03:08:17.536Z,0.00
2018-02-24T03:09:17.483Z,0.00
2018-02-24T03:10:17.733Z,0.00
2018-02-24T03:11:17.382Z,0.00
2018-02-24T03:12:17.331Z,0.00
2018-02-24T03:13:17.281Z,0.00
2018-02-24T03:14:17.228Z,0.00
2018-02-24T03:15:17.182Z,0.00
2018-02-24T03:16:17.132Z,0.00
2018-02-24T03:17:17.445Z,0.00
2018-02-24T03:18:17.028Z,0.00
2018-02-24T03:19:16.976Z,0.00
2018-02-24T03:20:16.930Z,0.00
2018-02-24T03:21:16.876Z,0.00
2018-02-24T03:22:16.825Z,0.00
2018-02-24T03:23:16.780Z,0.00
2018-02-24T03:24:17.024Z,0.00
2018-02-24T03:25:16.675Z,0.00
2018-02-24T03:26:16.628Z,0.00
2018-02-24T03:27:16.577Z,0.00
2018-02-24T03:28:16.522Z,0.00
2018-02-24T03:29:16.571Z,0.00
2018-02-24T03:30:16.425Z,0.00
2018-02-24T03:31:16.673Z,0.00
2018-02-24T03:32:16.319Z,0.00
2018-02-24T03:33:16.269Z,0.00
2018-02-24T03:34:16.218Z,0.00
2018-02-24T03:35:16.170Z,0.00
2018-02-24T03:36:16.120Z,0.00
2018-02-24T03:37:16.366Z,0.00
2018-02-24T03:38:16.015Z,0.00
2018-02-24T03:39:15.965Z,0.00
2018-02-24T03:40:15.918Z,0.00
2018-02-24T03:41:15.870Z,0.00
2018-02-24T03:42:15.814Z,0.00
2018-02-24T03:43:16.062Z,0.00
2018-02-24T03:44:15.712Z,0.00
2018-02-24T03:45:15.662Z,0.00
2018-02-24T03:46:15.608Z,0.00
2018-02-24T03:47:15.558Z,0.00
2018-02-24T03:48:15.512Z,0.00
2018-02-24T03:49:15.757Z,0.00
2018-02-24T03:50:15.458Z,0.00
2018-02-24T03:51:15.359Z,0.00
2018-02-24T03:52:15.309Z,0.00
2018-02-24T03:53:15.258Z,0.00
2018-02-24T03:54:15.204Z,0.00
2018-02-24T03:55:15.456Z,0.00
2018-02-24T03:56:15.153Z,0.00
2018-02-24T03:57:15.053Z,0.00
2018-02-24T03:58:15.003Z,0.00
2018-02-24T03:59:14.964Z,0.00
2018-02-24T04:00:14.900Z,0.00
2018-02-24T04:01:15.148Z,0.00
2018-02-24T04:02:14.797Z,0.00
2018-02-24T04:03:14.749Z,0.00
2018-02-24T04:04:14.700Z,0.00
2018-02-24T04:05:14.646Z,0.00
2018-02-24T04:06:14.595Z,0.00
2018-02-24T04:07:14.549Z,0.00
2018-02-24T04:08:14.797Z,0.00
2018-02-24T04:09:14.443Z,0.00
2018-02-24T04:10:14.394Z,0.00
2018-02-24T04:11:14.343Z,0.00
2018-02-24T04:12:14.291Z,0.00
2018-02-24T04:13:14.240Z,0.00
2018-02-24T04:14:14.264Z,0.00
2018-02-24T04:15:14.436Z,0.00
2018-02-24T04:16:14.092Z,0.00
2018-02-24T04:17:14.045Z,0.00
2018-02-24T04:18:15.186Z,0.00
2018-02-24T04:19:14.268Z,0.00
2018-02-24T04:20:13.889Z,0.00
2018-02-24T04:21:13.838Z,0.00
2018-02-24T04:22:14.089Z,0.00
2018-02-24T04:23:13.732Z,0.00
2018-02-24T04:24:13.682Z,0.00
2018-02-24T04:25:13.632Z,0.00
2018-02-24T04:26:13.580Z,0.00
2018-02-24T04:27:13.531Z,0.00
2018-02-24T04:28:13.476Z,0.00
2018-02-24T04:29:13.728Z,0.00
2018-02-24T04:30:13.378Z,0.00
2018-02-24T04:31:13.326Z,0.00
2018-02-24T04:32:13.278Z,0.00
2018-02-24T04:33:13.227Z,0.00
2018-02-24T04:34:13.206Z,0.00
2018-02-24T04:35:13.122Z,0.00
2018-02-24T04:36:13.374Z,0.00
2018-02-24T04:37:13.026Z,0.00
2018-02-24T04:38:12.975Z,0.00
2018-02-24T04:39:12.921Z,0.00
2018-02-24T04:40:12.870Z,0.00
2018-02-24T04:41:12.820Z,0.00
2018-02-24T04:42:13.067Z,0.00
2018-02-24T04:43:12.717Z,0.00
2018-02-24T04:44:12.665Z,0.00
2018-02-24T04:45:12.621Z,0.00
2018-02-24T04:46:12.563Z,0.00
2018-02-24T04:47:12.513Z,0.00
2018-02-24T04:48:12.764Z,0.00
2018-02-24T04:49:12.419Z,0.00
2018-02-24T04:50:12.365Z,0.00
2018-02-24T04:51:12.315Z,0.00
2018-02-24T04:52:12.259Z,0.00
2018-02-24T04:53:12.209Z,0.00
2018-02-24T04:54:12.458Z,0.00
2018-02-24T04:55:12.108Z,0.00
2018-02-24T04:56:12.055Z,0.00
2018-02-24T04:57:12.006Z,0.00
2018-02-24T04:58:11.963Z,0.00
2018-02-24T04:59:11.905Z,0.00
2018-02-24T05:00:12.154Z,0.00
2018-02-24T05:01:11.805Z,0.00
2018-02-24T05:02:11.750Z,0.00
2018-02-24T05:03:11.701Z,0.00
2018-02-24T05:04:11.650Z,0.00
2018-02-24T05:05:11.598Z,0.00
2018-02-24T05:06:11.846Z,0.00
2018-02-24T05:07:11.496Z,0.00
2018-02-24T05:08:11.444Z,0.00
2018-02-24T05:09:11.398Z,0.00
2018-02-24T05:10:11.343Z,0.00
2018-02-24T05:11:11.292Z,0.00
2018-02-24T05:12:11.242Z,0.00
2018-02-24T05:13:11.492Z,0.00
2018-02-24T05:14:11.139Z,0.00
2018-02-24T05:15:11.100Z,0.00
2018-02-24T05:16:11.039Z,0.00
2018-02-24T05:17:10.987Z,0.00
2018-02-24T05:18:10.942Z,0.00
2018-02-24T05:19:11.034Z,0.00
2018-02-24T05:20:11.135Z,0.00
2018-02-24T05:21:10.785Z,0.00
2018-02-24T05:22:10.732Z,0.00
2018-02-24T05:23:10.680Z,0.00
2018-02-24T05:24:10.632Z,0.00
2018-02-24T05:25:10.580Z,0.00
2018-02-24T05:26:10.526Z,0.00
2018-02-24T05:27:10.776Z,0.00
2018-02-24T05:28:10.427Z,0.00
2018-02-24T05:29:10.374Z,0.00
2018-02-24T05:30:10.325Z,0.00
2018-02-24T05:31:10.275Z,0.00
2018-02-24T05:32:10.225Z,0.00
2018-02-24T05:33:10.173Z,0.00
2018-02-24T05:34:10.424Z,0.00
2018-02-24T05:35:10.073Z,0.00
2018-02-24T05:36:10.018Z,0.00
2018-02-24T05:37:09.967Z,0.00
2018-02-24T05:38:09.917Z,0.00
2018-02-24T05:39:09.867Z,0.00
2018-02-24T05:40:09.819Z,0.00
2018-02-24T05:41:10.064Z,0.00
2018-02-24T05:42:09.713Z,0.00
2018-02-24T05:43:09.660Z,0.00
2018-02-24T05:44:09.613Z,0.00
2018-02-24T05:45:09.559Z,0.00
2018-02-24T05:46:09.507Z,4.00
2018-02-24T05:47:09.457Z,0.00
2018-02-24T05:48:09.707Z,0.00
2018-02-24T05:49:09.357Z,4.00
2018-02-24T05:50:09.303Z,0.00
2018-02-24T05:51:09.305Z,4.00
2018-02-24T05:52:09.219Z,4.00
2018-02-24T05:53:09.152Z,4.00
2018-02-24T05:54:09.402Z,4.00
2018-02-24T05:55:09.048Z,8.00
2018-02-24T05:56:08.997Z,8.00
2018-02-24T05:57:08.997Z,12.00
2018-02-24T05:58:08.896Z,16.00
2018-02-24T05:59:08.845Z,16.00
2018-02-24T06:00:09.096Z,20.00
2018-02-24T06:01:08.760Z,24.00
2018-02-24T06:02:08.694Z,28.00
2018-02-24T06:03:08.640Z,36.00
2018-02-24T06:04:08.590Z,40.00
2018-02-24T06:05:08.544Z,48.00
2018-02-24T06:06:08.788Z,60.00
2018-02-24T06:07:08.437Z,68.00
2018-02-24T06:08:08.387Z,80.00
2018-02-24T06:09:08.337Z,96.00
2018-02-24T06:10:08.288Z,112.00
2018-02-24T06:11:08.233Z,128.00
2018-02-24T06:12:08.482Z,152.00
2018-02-24T06:13:08.131Z,172.00
2018-02-24T06:14:08.081Z,196.00
2018-02-24T06:15:08.026Z,224.00
2018-02-24T06:16:07.977Z,256.00
2018-02-24T06:17:07.927Z,288.00
2018-02-24T06:18:07.882Z,320.00
2018-02-24T06:19:08.126Z,356.00
2018-02-24T06:20:07.773Z,396.00
2018-02-24T06:21:07.723Z,440.00
2018-02-24T06:22:07.669Z,484.00
2018-02-24T06:23:07.671Z,528.00
2018-02-24T06:24:07.569Z,572.00
2018-02-24T06:25:07.521Z,620.00
2018-02-24T06:26:07.768Z,672.00
2018-02-24T06:27:07.416Z,736.00
2018-02-24T06:28:07.366Z,796.00
2018-02-24T06:29:07.418Z,872.00
2018-02-24T06:30:07.268Z,952.00
2018-02-24T06:31:07.217Z,1036.00
2018-02-24T06:32:07.263Z,1120.00
2018-02-24T06:33:07.416Z,1208.00
2018-02-24T06:34:07.058Z,1300.00
2018-02-24T06:35:07.143Z,1392.00
2018-02-24T06:36:06.957Z,1484.00
2018-02-24T06:37:06.908Z,1584.00
2018-02-24T06:38:06.854Z,1684.00
2018-02-24T06:39:07.144Z,1788.00
2018-02-24T06:40:07.547Z,1892.00
2018-02-24T06:41:06.701Z,2000.00
2018-02-24T06:42:06.649Z,2096.00
2018-02-24T06:43:06.602Z,2196.00
2018-02-24T06:44:06.597Z,2296.00
2018-02-24T06:45:06.499Z,2420.00
2018-02-24T06:46:06.446Z,2544.00
2018-02-24T06:47:06.697Z,2684.00
2018-02-24T06:48:06.345Z,2804.00
2018-02-24T06:49:06.394Z,2904.00
2018-02-24T06:50:06.492Z,3000.00
2018-02-24T06:51:06.193Z,3140.00
2018-02-24T06:52:06.518Z,3288.00
2018-02-24T06:53:06.295Z,3376.00
2018-02-24T06:54:06.340Z,3484.00
2018-02-24T06:55:05.990Z,3644.00
2018-02-24T06:56:06.241Z,3820.00
2018-02-24T06:57:05.905Z,3944.00
2018-02-24T06:58:05.840Z,4064.00
2018-02-24T06:59:05.785Z,4180.00
2018-02-24T07:00:06.032Z,4312.00
2018-02-24T07:02:05.683Z,4552.00
2018-02-24T07:03:05.585Z,4668.00
2018-02-24T07:04:06.573Z,4792.00
2018-02-24T07:05:05.482Z,4900.00
2018-02-24T07:06:05.730Z,5004.00
2018-02-24T07:07:05.379Z,5116.00
2018-02-24T07:08:05.372Z,5224.00
2018-02-24T07:09:06.314Z,5308.00
2018-02-24T07:10:05.233Z,5408.00
2018-02-24T07:11:06.270Z,5508.00
2018-02-24T07:12:05.428Z,5628.00
2018-02-24T07:13:05.078Z,5732.00
2018-02-24T07:14:05.033Z,5828.00
2018-02-24T07:15:04.975Z,5912.00
2018-02-24T07:16:04.923Z,6016.00
2018-02-24T07:17:04.875Z,6140.00
2018-02-24T07:18:05.222Z,6240.00
2018-02-24T07:19:04.770Z,6344.00
2018-02-24T07:20:04.922Z,6452.00
2018-02-24T07:21:04.673Z,6540.00
2018-02-24T07:22:04.617Z,6632.00
2018-02-24T07:23:04.669Z,6740.00
2018-02-24T07:24:04.819Z,6868.00
2018-02-24T07:25:04.468Z,6972.00
2018-02-24T07:26:04.425Z,7092.00
2018-02-24T07:27:04.367Z,7208.00
2018-02-24T07:28:04.317Z,7312.00
2018-02-24T07:29:04.267Z,7480.00
2018-02-24T07:30:04.217Z,11124.00
2018-02-24T07:31:04.489Z,25120.00
2018-02-24T07:32:04.116Z,31488.00
2018-02-24T07:33:04.170Z,31520.00
2018-02-24T07:34:04.018Z,31936.00
2018-02-24T07:35:03.968Z,31520.00
2018-02-24T07:36:04.217Z,32096.00
2018-02-24T07:37:03.866Z,33376.00
2018-02-24T07:38:04.117Z,34400.00
2018-02-24T07:39:03.771Z,35616.00
2018-02-24T07:40:03.725Z,36768.00
2018-02-24T07:41:03.673Z,38016.00
2018-02-24T07:42:03.727Z,38848.00
2018-02-24T07:43:03.951Z,40288.00
2018-02-24T07:44:03.731Z,41504.00
2018-02-24T07:45:03.788Z,43872.00
2018-02-24T07:46:03.437Z,46336.00
2018-02-24T07:47:03.397Z,48640.00
2018-02-24T07:48:03.348Z,49024.00
2018-02-24T07:49:03.754Z,47904.00
2018-02-24T07:50:03.307Z,43424.00
2018-02-24T07:51:03.212Z,38912.00
2018-02-24T07:52:03.469Z,37568.00
2018-02-24T07:53:03.126Z,38272.00
2018-02-24T07:54:03.080Z,41440.00
2018-02-24T07:55:04.259Z,45536.00
2018-02-24T07:57:02.954Z,50240.00
2018-02-24T07:58:02.958Z,51456.00
2018-02-24T07:59:03.766Z,51584.00
2018-02-24T08:00:02.829Z,51744.00
2018-02-24T08:01:03.427Z,51648.00
2018-02-24T08:02:02.739Z,46528.00
2018-02-24T08:03:02.696Z,50656.00
2018-02-24T08:04:02.654Z,51456.00
2018-02-24T08:05:02.613Z,52192.00
2018-02-24T08:06:02.868Z,54016.00
2018-02-24T08:07:02.525Z,56288.00
2018-02-24T08:08:02.483Z,56320.00
2018-02-24T08:09:02.451Z,58240.00
2018-02-24T08:10:02.407Z,58784.00
2018-02-24T08:11:02.356Z,57216.00
2018-02-24T08:12:02.616Z,56608.00
2018-02-24T08:13:02.276Z,57568.00
2018-02-24T08:14:02.232Z,59136.00
2018-02-24T08:15:02.192Z,60000.00
2018-02-24T08:16:02.151Z,63328.00
2018-02-24T08:17:02.111Z,67584.00
2018-02-24T08:18:02.366Z,69504.00
2018-02-24T08:19:02.030Z,71296.00
2018-02-24T08:20:01.993Z,71232.00
2018-02-24T08:21:02.152Z,69760.00
2018-02-24T08:22:01.907Z,65728.00
2018-02-24T08:23:01.868Z,66336.00
2018-02-24T08:24:02.124Z,70240.00
2018-02-24T08:25:01.787Z,56896.00
2018-02-24T08:26:01.751Z,84864.00
2018-02-24T08:27:01.807Z,78432.00
2018-02-24T08:28:01.664Z,87104.00
2018-02-24T08:29:01.626Z,86880.00
2018-02-24T08:30:01.885Z,89728.00
2018-02-24T08:31:01.547Z,78400.00
2018-02-24T08:32:01.510Z,78144.00
2018-02-24T08:33:01.516Z,67328.00
2018-02-24T08:34:01.428Z,63872.00
2018-02-24T08:35:01.388Z,71264.00
2018-02-24T08:36:01.652Z,69920.00
2018-02-24T08:37:01.310Z,50784.00
2018-02-24T08:38:01.272Z,45824.00
2018-02-24T08:39:01.234Z,48992.00
2018-02-24T08:40:01.195Z,43776.00
2018-02-24T08:41:01.160Z,40672.00
2018-02-24T08:42:01.114Z,41088.00
2018-02-24T08:43:01.378Z,39168.00
2018-02-24T08:44:01.041Z,47040.00
2018-02-24T08:45:01.006Z,43328.00
2018-02-24T08:46:00.956Z,39904.00
2018-02-24T08:47:00.921Z,29504.00
2018-02-24T08:48:00.877Z,31168.00
2018-02-24T08:49:00.833Z,30688.00
2018-02-24T08:50:01.106Z,32480.00
2018-02-24T08:51:00.753Z,36480.00
2018-02-24T08:52:00.711Z,29312.00
2018-02-24T08:53:00.675Z,27200.00
2018-02-24T08:54:00.628Z,25216.00
2018-02-24T08:55:00.587Z,24960.00
2018-02-24T08:56:00.544Z,26016.00
2018-02-24T08:57:00.804Z,25088.00
2018-02-24T08:58:00.506Z,23008.00
2018-02-24T08:59:00.418Z,21344.00
2018-02-24T09:00:00.378Z,21472.00
2018-02-24T09:01:00.332Z,21504.00
2018-02-24T09:02:00.288Z,22656.00
2018-02-24T09:03:00.244Z,22176.00
2018-02-24T09:04:00.603Z,21664.00
2018-02-24T09:05:00.156Z,21312.00
2018-02-24T09:06:00.115Z,21440.00
2018-02-24T09:07:00.125Z,21248.00
2018-02-24T09:08:00.028Z,22336.00
2018-02-24T09:08:59.982Z,27520.00
2018-02-24T09:10:00.137Z,46400.00
2018-02-24T09:11:00.193Z,43968.00
2018-02-24T09:11:59.862Z,28896.00
2018-02-24T09:12:59.814Z,26432.00
2018-02-24T09:14:00.021Z,24800.00
2018-02-24T09:14:59.714Z,24224.00
2018-02-24T09:15:59.670Z,22752.00
2018-02-24T09:16:59.627Z,21376.00
2018-02-24T09:17:59.883Z,20864.00
2018-02-24T09:18:59.539Z,20384.00
2018-02-24T09:19:59.495Z,19552.00
2018-02-24T09:20:59.652Z,18688.00
2018-02-24T09:21:59.406Z,18208.00
2018-02-24T09:22:59.358Z,18304.00
2018-02-24T09:23:59.614Z,18368.00
2018-02-24T09:24:59.272Z,18592.00
2018-02-24T09:25:59.226Z,17952.00
2018-02-24T09:26:59.181Z,17952.00
2018-02-24T09:27:59.140Z,17888.00
2018-02-24T09:28:59.092Z,16792.00
2018-02-24T09:29:59.344Z,16292.00
2018-02-24T09:30:59.020Z,16924.00
2018-02-24T09:31:59.055Z,16960.00
2018-02-24T09:32:58.911Z,16700.00
2018-02-24T09:33:58.946Z,16440.00
2018-02-24T09:34:58.823Z,16652.00
2018-02-24T09:35:59.074Z,16548.00
2018-02-24T09:36:58.730Z,16244.00
2018-02-24T09:37:58.685Z,16088.00
2018-02-24T09:38:58.651Z,17100.00
2018-02-24T09:39:58.596Z,17952.00
2018-02-24T09:40:58.550Z,17208.00
2018-02-24T09:41:58.804Z,15856.00
2018-02-24T09:42:58.459Z,16060.00
2018-02-24T09:43:58.411Z,17036.00
2018-02-24T09:44:58.367Z,18080.00
2018-02-24T09:45:58.325Z,19040.00
2018-02-24T09:46:58.290Z,18880.00
2018-02-24T09:47:58.530Z,19008.00
2018-02-24T09:48:58.236Z,20096.00
2018-02-24T09:49:58.139Z,20000.00
2018-02-24T09:50:58.100Z,20096.00
2018-02-24T09:51:58.056Z,18752.00
2018-02-24T09:52:58.005Z,17600.00
2018-02-24T09:53:57.959Z,16460.00
2018-02-24T09:54:58.411Z,16532.00
2018-02-24T09:55:57.873Z,16972.00
2018-02-24T09:56:57.823Z,16356.00
2018-02-24T09:57:57.778Z,14820.00
2018-02-24T09:58:57.742Z,15288.00
2018-02-24T09:59:57.689Z,15908.00
2018-02-24T10:00:57.691Z,16608.00
2018-02-24T10:01:57.897Z,17128.00
2018-02-24T10:02:57.551Z,19264.00
2018-02-24T10:03:57.511Z,21216.00
2018-02-24T10:04:57.460Z,22496.00
2018-02-24T10:05:57.417Z,22112.00
2018-02-24T10:06:57.370Z,21440.00
2018-02-24T10:07:57.329Z,20832.00
2018-02-24T10:08:57.580Z,23744.00
2018-02-24T10:09:57.239Z,21312.00
2018-02-24T10:10:57.195Z,19712.00
2018-02-24T10:11:57.148Z,20640.00
2018-02-24T10:12:57.102Z,22592.00
2018-02-24T10:13:57.055Z,22688.00
2018-02-24T10:14:57.016Z,22432.00
2018-02-24T10:15:57.265Z,21504.00
2018-02-24T10:16:56.971Z,20768.00
2018-02-24T10:17:56.880Z,21376.00
2018-02-24T10:18:56.875Z,22432.00
2018-02-24T10:19:56.784Z,21248.00
2018-02-24T10:20:56.741Z,21024.00
2018-02-24T10:21:56.697Z,20416.00
2018-02-24T10:22:56.968Z,21376.00
2018-02-24T10:23:56.614Z,18912.00
2018-02-24T10:24:56.662Z,18816.00
2018-02-24T10:25:56.514Z,18784.00
2018-02-24T10:26:56.472Z,17952.00
2018-02-24T10:27:56.426Z,16800.00
2018-02-24T10:28:56.682Z,16544.00
2018-02-24T10:29:56.343Z,16880.00
2018-02-24T10:30:56.290Z,16284.00
2018-02-24T10:31:56.246Z,16124.00
2018-02-24T10:32:56.201Z,16824.00
2018-02-24T10:33:56.161Z,16580.00
2018-02-24T10:34:56.414Z,17256.00
2018-02-24T10:35:56.065Z,17792.00
2018-02-24T10:36:56.024Z,16224.00
2018-02-24T10:37:55.976Z,17344.00
2018-02-24T10:38:55.980Z,18976.00
2018-02-24T10:39:55.886Z,18624.00
2018-02-24T10:40:56.139Z,19072.00
2018-02-24T10:41:55.796Z,19552.00
2018-02-24T10:42:55.749Z,18880.00
2018-02-24T10:43:55.704Z,19104.00
2018-02-24T10:44:55.716Z,21728.00
2018-02-24T10:45:55.617Z,23232.00
2018-02-24T10:46:55.868Z,20672.00
2018-02-24T10:47:55.523Z,21792.00
2018-02-24T10:48:55.480Z,23008.00
2018-02-24T10:49:55.435Z,24064.00
2018-02-24T10:50:55.539Z,22592.00
2018-02-24T10:51:55.344Z,23168.00
2018-02-24T10:52:55.598Z,23136.00
2018-02-24T10:53:55.252Z,22848.00
2018-02-24T10:54:55.208Z,24320.00
2018-02-24T10:55:55.166Z,23200.00
2018-02-24T10:56:55.117Z,21408.00
2018-02-24T10:57:55.071Z,20320.00
2018-02-24T10:59:55.293Z,20960.00
2018-02-24T11:00:54.938Z,21632.00
2018-02-24T11:01:55.197Z,21760.00
2018-02-24T11:02:54.858Z,50112.00
2018-02-24T11:03:54.808Z,23552.00
2018-02-24T11:04:54.759Z,21088.00
2018-02-24T11:05:54.733Z,24768.00
2018-02-24T11:06:54.969Z,22688.00
2018-02-24T11:07:54.676Z,23296.00
2018-02-24T11:08:54.580Z,24448.00
2018-02-24T11:09:54.536Z,25888.00
2018-02-24T11:10:54.493Z,26656.00
2018-02-24T11:11:54.451Z,27040.00
2018-02-24T11:12:54.408Z,29664.00
2018-02-24T11:13:54.702Z,25376.00
2018-02-24T11:15:07.058Z,22816.00
2018-02-24T11:15:54.770Z,29824.00
2018-02-24T11:16:54.232Z,26656.00
2018-02-24T11:17:54.180Z,52448.00
2018-02-24T11:18:54.134Z,37408.00
2018-02-24T11:19:54.091Z,111648.00
2018-02-24T11:20:54.348Z,32064.00
2018-02-24T11:21:54.016Z,26112.00
2018-02-24T11:22:53.973Z,24192.00
2018-02-24T11:23:53.918Z,34080.00
2018-02-24T11:24:53.874Z,27168.00
2018-02-24T11:25:53.831Z,49504.00
2018-02-24T11:26:53.792Z,36800.00
2018-02-24T11:27:54.041Z,29792.00
2018-02-24T11:29:26.912Z,25920.00
2018-02-24T11:29:53.659Z,25600.00
2018-02-24T11:30:54.011Z,25664.00
2018-02-24T11:31:53.571Z,27296.00
2018-02-24T11:32:53.529Z,32640.00
2018-02-24T11:33:53.484Z,32768.00
2018-02-24T11:34:53.740Z,26496.00
2018-02-24T11:35:53.455Z,26176.00
2018-02-24T11:36:53.354Z,24352.00
2018-02-24T11:37:53.312Z,29056.00
2018-02-24T11:38:53.272Z,30048.00
2018-02-24T11:39:53.229Z,32704.00
2018-02-24T11:40:53.477Z,32320.00
2018-02-24T11:41:53.135Z,30880.00
2018-02-24T11:42:53.194Z,28768.00
2018-02-24T11:44:38.998Z,33600.00
2018-02-24T11:44:53.006Z,37920.00
2018-02-24T11:45:52.962Z,112352.00
2018-02-24T11:46:52.921Z,40096.00
2018-02-24T11:47:52.879Z,51808.00
2018-02-24T11:48:52.832Z,33920.00
2018-02-24T11:49:52.793Z,42208.00
2018-02-24T11:50:52.746Z,26496.00
2018-02-24T11:51:52.704Z,58976.00
2018-02-24T11:52:52.981Z,26752.00
2018-02-24T11:53:52.618Z,29952.00
2018-02-24T11:54:52.575Z,27168.00
2018-02-24T11:55:52.535Z,22688.00
2018-02-24T11:56:52.494Z,19008.00
2018-02-24T11:57:52.454Z,18400.00
2018-02-24T11:58:52.718Z,16476.00
2018-02-24T11:59:52.367Z,17220.00
2018-02-24T12:00:52.322Z,20064.00
2018-02-24T12:01:52.274Z,21728.00
2018-02-24T12:02:52.232Z,19520.00
2018-02-24T12:03:52.189Z,28928.00
2018-02-24T12:04:52.452Z,28288.00
2018-02-24T12:05:52.099Z,63008.00
2018-02-24T12:06:52.058Z,38432.00
2018-02-24T12:07:52.016Z,15928.00
2018-02-24T12:08:51.973Z,16440.00
2018-02-24T12:09:51.928Z,17344.00
2018-02-24T12:10:52.183Z,16216.00
2018-02-24T12:11:52.147Z,16476.00
2018-02-24T12:12:51.799Z,16152.00
2018-02-24T12:13:51.756Z,16264.00
2018-02-24T12:14:51.714Z,16632.00
2018-02-24T12:15:51.665Z,15888.00
2018-02-24T12:16:51.620Z,14140.00
2018-02-24T12:17:52.024Z,13836.00
2018-02-24T12:18:51.531Z,14264.00
2018-02-24T12:19:51.485Z,17240.00
2018-02-24T12:20:51.443Z,22528.00
2018-02-24T12:21:51.402Z,25152.00
2018-02-24T12:22:51.351Z,88640.00
2018-02-24T12:23:51.509Z,20224.00
2018-02-24T12:24:51.566Z,25696.00
2018-02-24T12:25:51.227Z,13200.00
2018-02-24T12:26:51.176Z,12520.00
2018-02-24T12:27:51.131Z,13920.00
2018-02-24T12:28:51.092Z,14172.00
2018-02-24T12:29:51.048Z,13924.00
2018-02-24T12:30:51.003Z,14776.00
2018-02-24T12:31:51.253Z,14352.00
2018-02-24T12:32:50.962Z,13516.00